sensor_id;sensor_type;location;lat;lon;timestamp;pressure;altitude;pressure_sealevel;temperature;humidity
21706;BME280;11014;53.076;18.208;2022-10-12T00:02:14;102309.56;;;7.14;63.95
21706;BME280;11014;53.076;18.208;2022-10-12T00:04:43;102312.56;;;7.11;63.88
21706;BME280;11014;53.076;18.208;2022-10-12T00:07:11;102316.59;;;7.15;63.71
21706;BME280;11014;53.076;18.208;2022-10-12T00:09:39;102312.88;;;7.16;63.48
21706;BME280;11014;53.076;18.208;2022-10-12T00:12:08;102316.72;;;7.14;63.67
21706;BME280;11014;53.076;18.208;2022-10-12T00:14:37;102309.88;;;7.11;63.54
21706;BME280;11014;53.076;18.208;2022-10-12T00:17:05;102313.53;;;7.10;63.45
21706;BME280;11014;53.076;18.208;2022-10-12T00:19:34;102310.06;;;7.10;63.40
21706;BME280;11014;53.076;18.208;2022-10-12T00:22:02;102321.09;;;7.07;63.25
21706;BME280;11014;53.076;18.208;2022-10-12T00:24:31;102313.22;;;7.05;63.53
21706;BME280;11014;53.076;18.208;2022-10-12T00:26:59;102314.56;;;7.01;63.49
21706;BME280;11014;53.076;18.208;2022-10-12T00:29:27;102325.25;;;7.01;63.63
21706;BME280;11014;53.076;18.208;2022-10-12T00:31:56;102326.91;;;7.02;63.72
21706;BME280;11014;53.076;18.208;2022-10-12T00:34:24;102323.56;;;6.92;63.67
21706;BME280;11014;53.076;18.208;2022-10-12T00:36:54;102317.88;;;6.87;64.02
21706;BME280;11014;53.076;18.208;2022-10-12T00:39:22;102330.56;;;6.85;64.22
21706;BME280;11014;53.076;18.208;2022-10-12T00:41:51;102330.72;;;6.84;64.25
21706;BME280;11014;53.076;18.208;2022-10-12T00:44:45;102330.91;;;6.82;64.38
21706;BME280;11014;53.076;18.208;2022-10-12T00:50:33;102329.53;;;6.78;63.99
21706;BME280;11014;53.076;18.208;2022-10-12T00:53:09;102332.72;;;6.74;63.86
21706;BME280;11014;53.076;18.208;2022-10-12T00:55:43;102339.22;;;6.71;63.99
21706;BME280;11014;53.076;18.208;2022-10-12T00:58:15;102343.53;;;6.64;63.94
21706;BME280;11014;53.076;18.208;2022-10-12T01:00:43;102338.38;;;6.63;64.22
21706;BME280;11014;53.076;18.208;2022-10-12T01:03:14;102340.19;;;6.62;64.32
21706;BME280;11014;53.076;18.208;2022-10-12T01:05:44;102338.53;;;6.61;64.05
21706;BME280;11014;53.076;18.208;2022-10-12T01:08:13;102338.53;;;6.61;64.02
21706;BME280;11014;53.076;18.208;2022-10-12T01:10:41;102342.88;;;6.62;64.14
21706;BME280;11014;53.076;18.208;2022-10-12T01:13:10;102338.38;;;6.63;64.03
21706;BME280;11014;53.076;18.208;2022-10-12T01:15:44;102334.00;;;6.62;64.12
21706;BME280;11014;53.076;18.208;2022-10-12T01:18:25;102338.38;;;6.63;64.27
21706;BME280;11014;53.076;18.208;2022-10-12T01:23:57;102340.50;;;6.59;64.21
21706;BME280;11014;53.076;18.208;2022-10-12T01:30:06;102348.19;;;6.54;63.83
21706;BME280;11014;53.076;18.208;2022-10-12T01:35:36;102341.13;;;6.45;64.11
21706;BME280;11014;53.076;18.208;2022-10-12T01:38:15;102340.66;;;6.41;63.89
21706;BME280;11014;53.076;18.208;2022-10-12T01:41:09;102339.13;;;6.39;64.18
21706;BME280;11014;53.076;18.208;2022-10-12T01:43:42;102332.13;;;6.38;64.08
21706;BME280;11014;53.076;18.208;2022-10-12T01:48:46;102332.44;;;6.35;63.96
21706;BME280;11014;53.076;18.208;2022-10-12T01:51:27;102340.31;;;6.36;64.10
21706;BME280;11014;53.076;18.208;2022-10-12T01:57:09;102339.94;;;6.39;64.08
21706;BME280;11014;53.076;18.208;2022-10-12T02:07:51;102348.09;;;6.30;64.09
21706;BME280;11014;53.076;18.208;2022-10-12T02:10:25;102340.25;;;6.28;64.28
21706;BME280;11014;53.076;18.208;2022-10-12T02:12:56;102350.09;;;6.28;64.07
21706;BME280;11014;53.076;18.208;2022-10-12T02:15:30;102342.41;;;6.25;64.40
21706;BME280;11014;53.076;18.208;2022-10-12T02:18:01;102338.06;;;6.24;64.22
21706;BME280;11014;53.076;18.208;2022-10-12T02:20:32;102339.38;;;6.20;64.35
21706;BME280;11014;53.076;18.208;2022-10-12T02:23:01;102348.22;;;6.20;64.45
21706;BME280;11014;53.076;18.208;2022-10-12T02:25:32;102348.06;;;6.22;64.48
21706;BME280;11014;53.076;18.208;2022-10-12T02:28:07;102346.91;;;6.24;64.54
21706;BME280;11014;53.076;18.208;2022-10-12T02:30:44;102344.41;;;6.23;64.46
21706;BME280;11014;53.076;18.208;2022-10-12T02:33:23;102343.56;;;6.22;64.47
21706;BME280;11014;53.076;18.208;2022-10-12T02:36:00;102351.41;;;6.24;64.38
21706;BME280;11014;53.076;18.208;2022-10-12T02:38:31;102345.41;;;6.22;64.19
21706;BME280;11014;53.076;18.208;2022-10-12T02:41:07;102345.88;;;6.17;64.23
21706;BME280;11014;53.076;18.208;2022-10-12T02:43:43;102345.03;;;6.17;64.32
21706;BME280;11014;53.076;18.208;2022-10-12T02:46:14;102348.69;;;6.16;64.32
21706;BME280;11014;53.076;18.208;2022-10-12T02:48:45;102353.50;;;6.12;64.41
21706;BME280;11014;53.076;18.208;2022-10-12T02:51:15;102352.00;;;6.10;64.23
21706;BME280;11014;53.076;18.208;2022-10-12T02:53:45;102354.66;;;6.10;64.36
21706;BME280;11014;53.076;18.208;2022-10-12T02:56:14;102350.34;;;6.09;64.47
21706;BME280;11014;53.076;18.208;2022-10-12T02:58:44;102358.34;;;6.09;64.26
21706;BME280;11014;53.076;18.208;2022-10-12T03:04:32;102351.31;;;6.08;64.20
21706;BME280;11014;53.076;18.208;2022-10-12T03:07:00;102352.47;;;6.05;64.35
21706;BME280;11014;53.076;18.208;2022-10-12T03:09:28;102348.31;;;6.03;64.49
21706;BME280;11014;53.076;18.208;2022-10-12T03:11:57;102353.94;;;6.00;64.26
21706;BME280;11014;53.076;18.208;2022-10-12T03:14:25;102350.63;;;5.97;64.61
21706;BME280;11014;53.076;18.208;2022-10-12T03:16:54;102354.13;;;5.98;64.62
21706;BME280;11014;53.076;18.208;2022-10-12T03:19:23;102341.94;;;5.95;64.48
21706;BME280;11014;53.076;18.208;2022-10-12T03:21:51;102348.25;;;5.94;64.54
21706;BME280;11014;53.076;18.208;2022-10-12T03:24:19;102346.75;;;5.92;64.59
21706;BME280;11014;53.076;18.208;2022-10-12T03:26:48;102347.59;;;5.92;64.39
21706;BME280;11014;53.076;18.208;2022-10-12T03:29:16;102349.25;;;5.93;64.67
21706;BME280;11014;53.076;18.208;2022-10-12T03:31:45;102351.91;;;5.93;64.58
21706;BME280;11014;53.076;18.208;2022-10-12T03:34:13;102352.63;;;5.95;64.78
21706;BME280;11014;53.076;18.208;2022-10-12T03:36:41;102350.94;;;5.94;64.70
21706;BME280;11014;53.076;18.208;2022-10-12T03:39:10;102349.25;;;5.93;64.43
21706;BME280;11014;53.076;18.208;2022-10-12T03:41:39;102354.56;;;5.93;64.70
21706;BME280;11014;53.076;18.208;2022-10-12T03:44:07;102352.09;;;5.92;64.50
21706;BME280;11014;53.076;18.208;2022-10-12T03:46:35;102363.91;;;5.89;64.35
21706;BME280;11014;53.076;18.208;2022-10-12T03:49:04;102362.22;;;5.88;64.60
21706;BME280;11014;53.076;18.208;2022-10-12T03:51:32;102353.25;;;5.89;64.57
21706;BME280;11014;53.076;18.208;2022-10-12T03:54:01;102352.53;;;5.87;64.58
21706;BME280;11014;53.076;18.208;2022-10-12T03:56:29;102358.88;;;5.86;64.52
21706;BME280;11014;53.076;18.208;2022-10-12T03:58:57;102350.41;;;5.91;64.58
21706;BME280;11014;53.076;18.208;2022-10-12T04:01:26;102355.50;;;5.84;64.20
21706;BME280;11014;53.076;18.208;2022-10-12T04:03:55;102357.56;;;5.90;64.16
21706;BME280;11014;53.076;18.208;2022-10-12T04:06:23;102359.06;;;5.93;64.29
21706;BME280;11014;53.076;18.208;2022-10-12T04:08:51;102361.59;;;5.94;64.06
21706;BME280;11014;53.076;18.208;2022-10-12T04:11:20;102358.25;;;5.92;63.92
21706;BME280;11014;53.076;18.208;2022-10-12T04:13:49;102364.41;;;5.93;64.18
21706;BME280;11014;53.076;18.208;2022-10-12T04:16:17;102370.59;;;5.93;64.04
21706;BME280;11014;53.076;18.208;2022-10-12T04:18:46;102368.63;;;5.95;64.23
21706;BME280;11014;53.076;18.208;2022-10-12T04:21:15;102367.59;;;5.96;64.32
21706;BME280;11014;53.076;18.208;2022-10-12T04:23:44;102378.13;;;5.98;64.05
21706;BME280;11014;53.076;18.208;2022-10-12T04:26:12;102366.63;;;5.97;63.99
21706;BME280;11014;53.076;18.208;2022-10-12T04:28:40;102375.78;;;5.95;63.83
21706;BME280;11014;53.076;18.208;2022-10-12T04:31:09;102377.59;;;5.94;64.03
21706;BME280;11014;53.076;18.208;2022-10-12T04:33:37;102382.25;;;5.92;64.21
21706;BME280;11014;53.076;18.208;2022-10-12T04:36:25;102384.41;;;5.89;63.94
21706;BME280;11014;53.076;18.208;2022-10-12T04:38:54;102381.72;;;5.89;64.02
21706;BME280;11014;53.076;18.208;2022-10-12T04:41:28;102385.56;;;5.86;63.69
21706;BME280;11014;53.076;18.208;2022-10-12T04:44:21;102382.03;;;5.86;63.76
21706;BME280;11014;53.076;18.208;2022-10-12T04:46:50;102376.84;;;5.84;63.71
21706;BME280;11014;53.076;18.208;2022-10-12T04:49:18;102380.50;;;5.83;63.77
21706;BME280;11014;53.076;18.208;2022-10-12T04:51:47;102378.00;;;5.82;63.85
21706;BME280;11014;53.076;18.208;2022-10-12T04:54:15;102379.97;;;5.80;64.16
21706;BME280;11014;53.076;18.208;2022-10-12T04:56:44;102387.97;;;5.80;64.14
21706;BME280;11014;53.076;18.208;2022-10-12T04:59:15;102386.81;;;5.82;63.87
21706;BME280;11014;53.076;18.208;2022-10-12T05:01:44;102386.69;;;5.84;64.08
21706;BME280;11014;53.076;18.208;2022-10-12T05:04:13;102387.66;;;5.83;63.97
21706;BME280;11014;53.076;18.208;2022-10-12T05:06:42;102383.88;;;5.85;63.84
21706;BME280;11014;53.076;18.208;2022-10-12T05:09:14;102391.03;;;5.85;64.19
21706;BME280;11014;53.076;18.208;2022-10-12T05:11:48;102394.41;;;5.87;64.18
21706;BME280;11014;53.076;18.208;2022-10-12T05:14:16;102401.59;;;5.94;64.03
21706;BME280;11014;53.076;18.208;2022-10-12T05:16:58;102398.59;;;5.89;63.66
21706;BME280;11014;53.076;18.208;2022-10-12T05:19:26;102399.56;;;5.88;63.89
21706;BME280;11014;53.076;18.208;2022-10-12T05:21:55;102392.53;;;5.87;63.74
21706;BME280;11014;53.076;18.208;2022-10-12T05:24:24;102402.91;;;5.90;64.10
21706;BME280;11014;53.076;18.208;2022-10-12T05:26:53;102397.25;;;5.93;64.30
21706;BME280;11014;53.076;18.208;2022-10-12T05:29:21;102399.31;;;6.00;64.53
21706;BME280;11014;53.076;18.208;2022-10-12T05:32:14;102408.34;;;6.07;64.51
21706;BME280;11014;53.076;18.208;2022-10-12T05:34:58;102411.88;;;6.15;64.35
21706;BME280;11014;53.076;18.208;2022-10-12T05:37:53;102412.44;;;6.19;64.37
21706;BME280;11014;53.076;18.208;2022-10-12T05:40:46;102416.47;;;6.23;63.88
21706;BME280;11014;53.076;18.208;2022-10-12T05:43:15;102411.78;;;6.25;64.08
21706;BME280;11014;53.076;18.208;2022-10-12T05:45:43;102417.81;;;6.27;64.08
21706;BME280;11014;53.076;18.208;2022-10-12T05:48:12;102415.81;;;6.29;64.29
21706;BME280;11014;53.076;18.208;2022-10-12T05:50:41;102418.16;;;6.32;64.64
21706;BME280;11014;53.076;18.208;2022-10-12T05:53:10;102412.50;;;6.35;64.73
21706;BME280;11014;53.076;18.208;2022-10-12T05:55:38;102422.25;;;6.44;64.53
21706;BME280;11014;53.076;18.208;2022-10-12T05:58:07;102414.59;;;6.49;64.73
21706;BME280;11014;53.076;18.208;2022-10-12T06:00:36;102421.25;;;6.53;64.60
21706;BME280;11014;53.076;18.208;2022-10-12T06:03:04;102415.47;;;6.57;64.89
21706;BME280;11014;53.076;18.208;2022-10-12T06:05:33;102424.66;;;6.63;64.99
21706;BME280;11014;53.076;18.208;2022-10-12T06:08:02;102427.81;;;6.67;64.84
21706;BME280;11014;53.076;18.208;2022-10-12T06:10:30;102422.69;;;6.73;64.87
21706;BME280;11014;53.076;18.208;2022-10-12T06:13:00;102425.69;;;6.78;65.12
21706;BME280;11014;53.076;18.208;2022-10-12T06:15:28;102427.06;;;6.82;65.31
21706;BME280;11014;53.076;18.208;2022-10-12T06:17:58;102423.06;;;6.86;64.95
21706;BME280;11014;53.076;18.208;2022-10-12T06:20:27;102426.06;;;6.91;65.44
21706;BME280;11014;53.076;18.208;2022-10-12T06:22:55;102423.78;;;6.96;65.29
21706;BME280;11014;53.076;18.208;2022-10-12T06:25:24;102428.78;;;6.99;65.50
21706;BME280;11014;53.076;18.208;2022-10-12T06:27:52;102438.81;;;7.05;65.57
21706;BME280;11014;53.076;18.208;2022-10-12T06:30:21;102435.66;;;7.10;65.56
21706;BME280;11014;53.076;18.208;2022-10-12T06:32:50;102440.19;;;7.18;66.03
21706;BME280;11014;53.076;18.208;2022-10-12T06:35:19;102446.53;;;7.25;66.08
21706;BME280;11014;53.076;18.208;2022-10-12T06:37:49;102439.38;;;7.33;66.02
21706;BME280;11014;53.076;18.208;2022-10-12T06:40:18;102440.22;;;7.42;66.22
21706;BME280;11014;53.076;18.208;2022-10-12T06:42:48;102445.38;;;7.51;66.36
21706;BME280;11014;53.076;18.208;2022-10-12T06:45:19;102446.94;;;7.62;66.42
21706;BME280;11014;53.076;18.208;2022-10-12T06:47:48;102446.09;;;7.69;66.60
21706;BME280;11014;53.076;18.208;2022-10-12T06:50:17;102443.56;;;7.76;66.40
21706;BME280;11014;53.076;18.208;2022-10-12T06:52:46;102442.56;;;7.85;66.64
21706;BME280;11014;53.076;18.208;2022-10-12T06:55:14;102449.91;;;7.91;66.95
21706;BME280;11014;53.076;18.208;2022-10-12T06:57:43;102447.22;;;7.99;66.47
21706;BME280;11014;53.076;18.208;2022-10-12T07:00:13;102443.03;;;8.05;66.64
21706;BME280;11014;53.076;18.208;2022-10-12T07:02:41;102457.25;;;8.13;66.91
21706;BME280;11014;53.076;18.208;2022-10-12T07:05:10;102462.75;;;8.20;66.92
21706;BME280;11014;53.076;18.208;2022-10-12T07:07:38;102467.59;;;8.24;66.83
21706;BME280;11014;53.076;18.208;2022-10-12T07:10:10;102462.59;;;8.29;66.89
21706;BME280;11014;53.076;18.208;2022-10-12T07:12:39;102465.59;;;8.34;66.86
21706;BME280;11014;53.076;18.208;2022-10-12T07:15:08;102460.06;;;8.36;67.26
21706;BME280;11014;53.076;18.208;2022-10-12T07:17:37;102465.44;;;8.44;67.00
21706;BME280;11014;53.076;18.208;2022-10-12T07:20:07;102468.22;;;8.51;67.33
21706;BME280;11014;53.076;18.208;2022-10-12T07:22:35;102470.88;;;8.59;67.54
21706;BME280;11014;53.076;18.208;2022-10-12T07:25:04;102468.03;;;8.68;67.47
21706;BME280;11014;53.076;18.208;2022-10-12T07:27:33;102472.31;;;8.77;67.60
21706;BME280;11014;53.076;18.208;2022-10-12T07:30:02;102470.94;;;8.89;68.17
21706;BME280;11014;53.076;18.208;2022-10-12T07:32:31;102466.69;;;9.03;67.91
21706;BME280;11014;53.076;18.208;2022-10-12T07:35:00;102479.34;;;9.17;68.16
21706;BME280;11014;53.076;18.208;2022-10-12T07:37:28;102479.94;;;9.27;68.21
21706;BME280;11014;53.076;18.208;2022-10-12T07:39:57;102476.50;;;9.41;68.38
21706;BME280;11014;53.076;18.208;2022-10-12T07:42:25;102472.03;;;9.57;68.32
21706;BME280;11014;53.076;18.208;2022-10-12T07:44:54;102462.84;;;9.74;68.64
21706;BME280;11014;53.076;18.208;2022-10-12T07:47:22;102469.75;;;9.91;68.98
21706;BME280;11014;53.076;18.208;2022-10-12T07:49:51;102470.63;;;10.06;68.73
21706;BME280;11014;53.076;18.208;2022-10-12T07:52:20;102458.09;;;10.21;69.07
21706;BME280;11014;53.076;18.208;2022-10-12T07:54:48;102459.56;;;10.38;69.28
21706;BME280;11014;53.076;18.208;2022-10-12T07:57:17;102454.03;;;10.54;69.26
21706;BME280;11014;53.076;18.208;2022-10-12T07:59:46;102453.84;;;10.70;69.56
21706;BME280;11014;53.076;18.208;2022-10-12T08:02:15;102458.34;;;10.85;69.79
21706;BME280;11014;53.076;18.208;2022-10-12T08:04:44;102460.44;;;11.04;69.67
21706;BME280;11014;53.076;18.208;2022-10-12T08:07:12;102458.38;;;11.20;70.07
21706;BME280;11014;53.076;18.208;2022-10-12T08:09:41;102460.38;;;11.33;69.70
21706;BME280;11014;53.076;18.208;2022-10-12T08:12:10;102460.13;;;11.49;69.73
21706;BME280;11014;53.076;18.208;2022-10-12T08:14:38;102445.34;;;11.60;69.59
21706;BME280;11014;53.076;18.208;2022-10-12T08:17:07;102452.34;;;11.75;69.79
21706;BME280;11014;53.076;18.208;2022-10-12T08:19:37;102461.34;;;11.89;69.95
21706;BME280;11014;53.076;18.208;2022-10-12T08:22:06;102457.81;;;12.10;70.33
21706;BME280;11014;53.076;18.208;2022-10-12T08:24:35;102455.44;;;12.28;70.30
21706;BME280;11014;53.076;18.208;2022-10-12T08:27:04;102450.78;;;12.43;70.20
21706;BME280;11014;53.076;18.208;2022-10-12T08:29:32;102456.09;;;12.64;70.28
21706;BME280;11014;53.076;18.208;2022-10-12T08:32:01;102455.34;;;12.83;69.84
21706;BME280;11014;53.076;18.208;2022-10-12T08:34:30;102452.91;;;13.01;70.18
21706;BME280;11014;53.076;18.208;2022-10-12T08:36:58;102447.00;;;13.19;69.98
21706;BME280;11014;53.076;18.208;2022-10-12T08:39:27;102446.00;;;13.40;69.84
21706;BME280;11014;53.076;18.208;2022-10-12T08:49:57;102443.94;;;14.07;69.13
21706;BME280;11014;53.076;18.208;2022-10-12T08:55:32;102445.19;;;14.38;68.20
21706;BME280;11014;53.076;18.208;2022-10-12T08:58:02;102443.09;;;14.53;68.15
21706;BME280;11014;53.076;18.208;2022-10-12T09:00:33;102441.38;;;14.65;67.51
21706;BME280;11014;53.076;18.208;2022-10-12T09:03:25;102440.50;;;14.77;67.04
21706;BME280;11014;53.076;18.208;2022-10-12T09:06:06;102432.94;;;14.93;66.57
21706;BME280;11014;53.076;18.208;2022-10-12T09:08:54;102437.25;;;15.07;66.82
21706;BME280;11014;53.076;18.208;2022-10-12T09:11:47;102432.75;;;15.25;66.18
21706;BME280;11014;53.076;18.208;2022-10-12T09:14:31;102441.00;;;15.43;66.22
21706;BME280;11014;53.076;18.208;2022-10-12T09:17:01;102444.69;;;15.56;65.50
21706;BME280;11014;53.076;18.208;2022-10-12T09:19:37;102435.25;;;15.65;65.32
21706;BME280;11014;53.076;18.208;2022-10-12T09:22:17;102429.13;;;15.76;64.63
21706;BME280;11014;53.076;18.208;2022-10-12T09:24:48;102436.28;;;15.88;64.35
21706;BME280;11014;53.076;18.208;2022-10-12T09:27:20;102436.81;;;16.04;64.10
21706;BME280;11014;53.076;18.208;2022-10-12T09:29:57;102433.56;;;16.13;63.30
21706;BME280;11014;53.076;18.208;2022-10-12T09:33:01;102426.38;;;16.25;63.14
21706;BME280;11014;53.076;18.208;2022-10-12T09:35:21;102429.78;;;16.39;62.00
21706;BME280;11014;53.076;18.208;2022-10-12T09:37:51;102441.16;;;16.47;61.46
21706;BME280;11014;53.076;18.208;2022-10-12T09:40:26;102434.97;;;16.58;60.78
21706;BME280;11014;53.076;18.208;2022-10-12T09:43:01;102434.22;;;16.70;59.99
21706;BME280;11014;53.076;18.208;2022-10-12T09:45:32;102429.56;;;16.77;59.26
21706;BME280;11014;53.076;18.208;2022-10-12T09:50:53;102436.63;;;16.96;57.47
21706;BME280;11014;53.076;18.208;2022-10-12T09:53:50;102438.13;;;17.10;57.52
21706;BME280;11014;53.076;18.208;2022-10-12T09:56:28;102437.16;;;17.16;56.57
21706;BME280;11014;53.076;18.208;2022-10-12T09:59:00;102423.06;;;17.26;56.15
21706;BME280;11014;53.076;18.208;2022-10-12T10:01:34;102430.16;;;17.38;56.20
21706;BME280;11014;53.076;18.208;2022-10-12T10:04:21;102423.72;;;17.51;55.49
21706;BME280;11014;53.076;18.208;2022-10-12T10:06:51;102435.25;;;17.64;55.42
21706;BME280;11014;53.076;18.208;2022-10-12T10:09:34;102429.47;;;17.72;53.72
21706;BME280;11014;53.076;18.208;2022-10-12T10:12:36;102425.81;;;17.79;52.47
21706;BME280;11014;53.076;18.208;2022-10-12T10:15:39;102424.84;;;17.85;52.00
21706;BME280;11014;53.076;18.208;2022-10-12T10:20:57;102415.53;;;18.04;51.94
21706;BME280;11014;53.076;18.208;2022-10-12T10:24:17;102420.13;;;18.15;50.90
21706;BME280;11014;53.076;18.208;2022-10-12T10:26:21;102418.84;;;18.17;49.53
21706;BME280;11014;53.076;18.208;2022-10-12T10:29:13;102419.56;;;18.24;49.30
21706;BME280;11014;53.076;18.208;2022-10-12T10:31:43;102421.91;;;18.32;49.25
21706;BME280;11014;53.076;18.208;2022-10-12T10:36:54;102416.09;;;18.41;48.52
21706;BME280;11014;53.076;18.208;2022-10-12T10:39:29;102414.47;;;18.51;48.43
21706;BME280;11014;53.076;18.208;2022-10-12T10:42:18;102409.56;;;18.65;48.41
21706;BME280;11014;53.076;18.208;2022-10-12T10:44:58;102414.06;;;18.71;47.92
21706;BME280;11014;53.076;18.208;2022-10-12T10:48:09;102411.28;;;18.82;48.17
21706;BME280;11014;53.076;18.208;2022-10-12T10:55:43;102403.91;;;19.23;46.95
21706;BME280;11014;53.076;18.208;2022-10-12T10:58:43;102396.47;;;19.35;46.38
21706;BME280;11014;53.076;18.208;2022-10-12T11:01:50;102400.00;;;19.47;45.44
21706;BME280;11014;53.076;18.208;2022-10-12T11:04:32;102410.50;;;19.55;45.33
21706;BME280;11014;53.076;18.208;2022-10-12T11:07:17;102405.06;;;19.72;45.21
21706;BME280;11014;53.076;18.208;2022-10-12T11:09:53;102405.22;;;19.82;44.93
21706;BME280;11014;53.076;18.208;2022-10-12T11:12:46;102402.81;;;19.85;44.67
21706;BME280;11014;53.076;18.208;2022-10-12T11:15:24;102391.91;;;19.85;44.41
21706;BME280;11014;53.076;18.208;2022-10-12T11:18:17;102391.34;;;19.83;44.15
21706;BME280;11014;53.076;18.208;2022-10-12T11:20:59;102398.28;;;19.74;44.21
21706;BME280;11014;53.076;18.208;2022-10-12T11:27:10;102396.78;;;19.83;43.63
21706;BME280;11014;53.076;18.208;2022-10-12T11:29:41;102392.75;;;19.86;43.69
21706;BME280;11014;53.076;18.208;2022-10-12T11:32:27;102386.25;;;19.92;43.44
21706;BME280;11014;53.076;18.208;2022-10-12T11:35:02;102384.22;;;19.99;43.79
21706;BME280;11014;53.076;18.208;2022-10-12T11:38:27;102385.75;;;20.11;42.85
21706;BME280;11014;53.076;18.208;2022-10-12T11:46:27;102384.38;;;19.92;43.05
21706;BME280;11014;53.076;18.208;2022-10-12T11:52:08;102375.06;;;19.88;42.65
21706;BME280;11014;53.076;18.208;2022-10-12T11:57:51;102384.72;;;19.79;42.99
21706;BME280;11014;53.076;18.208;2022-10-12T12:16:41;102386.63;;;19.79;42.39
21706;BME280;11014;53.076;18.208;2022-10-12T12:19:38;102386.94;;;19.82;42.73
21706;BME280;11014;53.076;18.208;2022-10-12T12:22:49;102371.41;;;19.83;42.46
21706;BME280;11014;53.076;18.208;2022-10-12T12:25:28;102371.16;;;19.84;42.43
21706;BME280;11014;53.076;18.208;2022-10-12T12:28:22;102376.38;;;19.86;42.83
21706;BME280;11014;53.076;18.208;2022-10-12T12:30:59;102376.69;;;19.89;42.78
21706;BME280;11014;53.076;18.208;2022-10-12T12:33:35;102374.56;;;19.91;42.72
21706;BME280;11014;53.076;18.208;2022-10-12T12:36:46;102379.09;;;20.02;42.22
21706;BME280;11014;53.076;18.208;2022-10-12T12:39:31;102382.88;;;20.01;42.18
21706;BME280;11014;53.076;18.208;2022-10-12T12:42:05;102374.63;;;19.96;42.16
21706;BME280;11014;53.076;18.208;2022-10-12T12:44:42;102381.72;;;19.97;42.17
21706;BME280;11014;53.076;18.208;2022-10-12T12:50:32;102379.59;;;19.99;42.50
21706;BME280;11014;53.076;18.208;2022-10-12T12:53:30;102379.09;;;20.02;42.00
21706;BME280;11014;53.076;18.208;2022-10-12T13:02:20;102370.03;;;20.19;41.20
21706;BME280;11014;53.076;18.208;2022-10-12T13:08:22;102370.78;;;20.14;41.67
21706;BME280;11014;53.076;18.208;2022-10-12T13:21:55;102361.47;;;19.93;42.30
21706;BME280;11014;53.076;18.208;2022-10-12T13:28:15;102366.50;;;20.01;42.50
21706;BME280;11014;53.076;18.208;2022-10-12T13:31:25;102359.88;;;19.97;42.09
21706;BME280;11014;53.076;18.208;2022-10-12T13:34:16;102365.88;;;19.94;42.47
21706;BME280;11014;53.076;18.208;2022-10-12T13:37:42;102364.53;;;19.97;42.69
21706;BME280;11014;53.076;18.208;2022-10-12T13:44:13;102368.84;;;19.93;41.47
21706;BME280;11014;53.076;18.208;2022-10-12T13:47:00;102369.34;;;19.90;41.45
21706;BME280;11014;53.076;18.208;2022-10-12T13:49:56;102360.00;;;19.86;41.48
21706;BME280;11014;53.076;18.208;2022-10-12T13:52:59;102364.63;;;19.85;41.33
21706;BME280;11014;53.076;18.208;2022-10-12T13:55:36;102363.47;;;19.81;41.60
21706;BME280;11014;53.076;18.208;2022-10-12T13:59:19;102364.56;;;19.80;41.60
21706;BME280;11014;53.076;18.208;2022-10-12T14:01:59;102366.69;;;19.78;41.66
21706;BME280;11014;53.076;18.208;2022-10-12T14:04:32;102364.56;;;19.80;42.00
21706;BME280;11014;53.076;18.208;2022-10-12T14:07:18;102362.34;;;19.77;41.94
21706;BME280;11014;53.076;18.208;2022-10-12T14:13:28;102355.00;;;19.78;41.97
21706;BME280;11014;53.076;18.208;2022-10-12T14:16:21;102356.88;;;19.77;42.01
21706;BME280;11014;53.076;18.208;2022-10-12T14:19:32;102361.00;;;19.80;42.28
21706;BME280;11014;53.076;18.208;2022-10-12T14:22:18;102365.28;;;19.76;41.86
21706;BME280;11014;53.076;18.208;2022-10-12T14:25:18;102362.56;;;19.76;42.27
21706;BME280;11014;53.076;18.208;2022-10-12T14:27:58;102353.00;;;19.73;42.79
21706;BME280;11014;53.076;18.208;2022-10-12T14:30:50;102359.59;;;19.77;43.10
21706;BME280;11014;53.076;18.208;2022-10-12T14:33:23;102358.91;;;19.87;43.02
21706;BME280;11014;53.076;18.208;2022-10-12T14:36:14;102357.53;;;19.84;43.18
21706;BME280;11014;53.076;18.208;2022-10-12T14:38:52;102350.84;;;19.75;43.44
21706;BME280;11014;53.076;18.208;2022-10-12T14:42:02;102359.59;;;19.77;43.78
21706;BME280;11014;53.076;18.208;2022-10-12T14:44:59;102351.66;;;19.76;43.34
21706;BME280;11014;53.076;18.208;2022-10-12T14:47:39;102345.91;;;19.72;43.58
21706;BME280;11014;53.076;18.208;2022-10-12T14:50:19;102348.22;;;19.64;43.99
21706;BME280;11014;53.076;18.208;2022-10-12T14:53:08;102346.91;;;19.66;44.31
21706;BME280;11014;53.076;18.208;2022-10-12T14:55:39;102341.44;;;19.66;44.52
21706;BME280;11014;53.076;18.208;2022-10-12T14:58:13;102347.97;;;19.65;44.96
21706;BME280;11014;53.076;18.208;2022-10-12T15:00:43;102344.66;;;19.63;45.05
21706;BME280;11014;53.076;18.208;2022-10-12T15:03:11;102337.31;;;19.64;45.60
21706;BME280;11014;53.076;18.208;2022-10-12T15:05:40;102344.59;;;19.58;45.82
21706;BME280;11014;53.076;18.208;2022-10-12T15:08:09;102338.47;;;19.51;46.27
21706;BME280;11014;53.076;18.208;2022-10-12T15:10:37;102335.66;;;19.46;46.08
21706;BME280;11014;53.076;18.208;2022-10-12T15:13:11;102336.63;;;19.40;46.34
21706;BME280;11014;53.076;18.208;2022-10-12T15:15:44;102340.91;;;19.36;46.50
21706;BME280;11014;53.076;18.208;2022-10-12T15:18:15;102332.16;;;19.34;46.66
21706;BME280;11014;53.076;18.208;2022-10-12T15:21:01;102338.13;;;19.31;46.73
21706;BME280;11014;53.076;18.208;2022-10-12T15:23:31;102339.09;;;19.25;47.13
21706;BME280;11014;53.076;18.208;2022-10-12T15:26:00;102335.72;;;19.18;47.43
21706;BME280;11014;53.076;18.208;2022-10-12T15:28:42;102333.63;;;19.08;47.60